Time;durP1;ratioP1;P1;durP2;ratioP2;P2;SDS_P1;SDS_P2;PMS_P1;PMS_P2;Temp;Humidity;BMP_temperature;BMP_pressure;BME280_temperature;BME280_humidity;BME280_pressure;Samples;Min_cycle;Max_cycle;Signal;HPM_P1;HPM_P2
2024/01/10 00:00:37;;;;;;;196.73;12.30;;;;;;;24.77;43.36;100934.28;7285661;19;132678;-39
2024/01/10 00:03:03;;;;;;;242.13;13.68;;;;;;;24.90;42.28;100928.81;7293717;19;129086;-40
2024/01/10 00:05:28;;;;;;;311.83;15.97;;;;;;;24.55;43.26;100930.88;7296587;19;129903;-40
2024/01/10 00:07:54;;;;;;;88.93;8.67;;;;;;;24.92;41.97;100926.91;7293696;19;129468;-38
2024/01/10 00:10:21;;;;;;;212.30;12.97;;;;;;;25.31;41.31;100928.75;7297400;19;132591;-38
2024/01/10 00:12:47;;;;;;;233.45;13.63;;;;;;;25.60;40.92;100927.13;7294091;19;133823;-39
2024/01/10 00:15:12;;;;;;;218.97;12.53;;;;;;;25.88;40.52;100923.75;7297008;19;129656;-38
2024/01/10 00:17:39;;;;;;;221.10;12.93;;;;;;;26.00;40.21;100922.66;7294990;19;129359;-36
2024/01/10 00:20:06;;;;;;;188.43;12.13;;;;;;;26.02;40.19;100922.53;7297711;19;131815;-40
2024/01/10 00:22:31;;;;;;;217.77;13.00;;;;;;;25.96;40.42;100920.44;7296437;19;130196;-35
2024/01/10 00:24:57;;;;;;;293.23;15.52;;;;;;;25.83;40.42;100925.97;7295405;19;131024;-37
2024/01/10 00:27:22;;;;;;;180.23;11.67;;;;;;;25.67;40.71;100915.06;7296914;19;130563;-38
2024/01/10 00:29:47;;;;;;;214.57;13.13;;;;;;;25.49;41.35;100906.16;7296454;19;129401;-40
2024/01/10 00:32:12;;;;;;;218.83;13.03;;;;;;;25.46;41.27;100914.31;7295113;19;129370;-41
2024/01/10 00:34:38;;;;;;;251.70;14.13;;;;;;;25.29;42.02;100917.53;7293700;19;129307;-37
2024/01/10 00:37:03;;;;;;;174.03;11.57;;;;;;;25.00;42.62;100892.88;7296063;19;131327;-39
2024/01/10 00:39:28;;;;;;;243.70;14.07;;;;;;;24.87;42.21;100919.41;7296827;19;129565;-39
2024/01/10 00:41:54;;;;;;;261.00;14.53;;;;;;;24.81;43.17;100911.19;7296384;19;129273;-41
2024/01/10 00:44:19;;;;;;;243.07;13.73;;;;;;;24.76;42.72;100911.53;7297189;19;129542;-41
2024/01/10 00:46:44;;;;;;;145.70;10.30;;;;;;;24.84;42.88;100903.84;7294801;19;130234;-36
2024/01/10 00:49:10;;;;;;;235.40;13.47;;;;;;;24.94;42.66;100914.44;7295607;19;130066;-38
2024/01/10 00:51:35;;;;;;;283.20;15.10;;;;;;;25.04;42.21;100915.34;7296709;19;130761;-40
2024/01/10 00:54:00;;;;;;;225.10;12.67;;;;;;;25.06;42.13;100916.88;7294561;19;130947;-37
2024/01/10 00:56:26;;;;;;;190.27;11.97;;;;;;;25.08;41.77;100898.31;7294476;19;129656;-41
2024/01/10 00:58:55;;;;;;;203.83;12.30;;;;;;;25.28;41.75;100905.34;7292628;19;129428;-36
2024/01/10 01:01:21;;;;;;;184.90;11.13;;;;;;;25.44;41.10;100918.88;7296708;19;130864;-38
2024/01/10 01:03:46;;;;;;;354.43;18.80;;;;;;;24.94;42.51;100914.44;7294854;19;131137;-37
2024/01/10 01:06:11;;;;;;;189.00;11.37;;;;;;;25.16;42.07;100916.91;7293390;19;130843;-37
2024/01/10 01:08:37;;;;;;;167.37;11.00;;;;;;;25.46;41.65;100906.41;7293012;19;130226;-37
2024/01/10 01:11:02;;;;;;;283.37;15.20;;;;;;;25.43;41.49;100885.63;7290176;19;129689;-41
2024/01/10 01:13:28;;;;;;;213.00;12.53;;;;;;;25.57;40.88;100919.47;7294915;19;129320;-41
2024/01/10 01:15:53;;;;;;;227.63;12.83;;;;;;;25.45;41.45;100920.56;7293757;19;130880;-38
2024/01/10 01:18:19;;;;;;;177.63;11.15;;;;;;;25.30;41.68;100916.59;7294297;19;129942;-38
2024/01/10 01:20:44;;;;;;;281.93;14.50;;;;;;;25.00;42.14;100898.13;7294877;19;134163;-37
2024/01/10 01:23:10;;;;;;;279.93;15.63;;;;;;;25.02;42.17;100919.91;7295757;19;130111;-41
2024/01/10 01:25:35;;;;;;;141.70;9.23;;;;;;;24.91;42.98;100920.78;7293988;19;130152;-38
2024/01/10 01:28:00;;;;;;;247.37;13.60;;;;;;;24.93;42.72;100915.41;7292308;19;130904;-37
2024/01/10 01:30:26;;;;;;;278.13;14.33;;;;;;;24.92;42.39;100908.47;7292770;19;129084;-38
2024/01/10 01:32:52;;;;;;;248.80;14.00;;;;;;;24.89;42.25;100916.63;7290897;19;131995;-41
2024/01/10 01:35:21;;;;;;;221.63;12.73;;;;;;;25.02;42.59;100914.63;7294884;19;131725;-40
2024/01/10 01:37:46;;;;;;;220.85;12.65;;;;;;;25.07;42.76;100909.81;7290547;19;131062;-40
2024/01/10 01:40:12;;;;;;;236.67;12.60;;;;;;;25.17;41.94;100905.44;7294156;19;131921;-37
2024/01/10 01:42:37;;;;;;;178.55;11.02;;;;;;;25.31;41.72;100912.97;7292696;19;130381;-35
2024/01/10 01:45:03;;;;;;;176.52;11.13;;;;;;;25.31;41.62;100916.44;7292533;19;130187;-37
2024/01/10 01:47:28;;;;;;;156.20;9.87;;;;;;;25.35;41.75;100915.22;7292877;19;131025;-38
2024/01/10 01:49:54;;;;;;;279.13;14.53;;;;;;;25.52;41.20;100908.50;7293429;19;130086;-39
2024/01/10 01:52:19;;;;;;;205.20;11.85;;;;;;;25.45;41.85;100917.94;7292444;19;130269;-36
2024/01/10 01:54:45;;;;;;;200.47;11.50;;;;;;;25.44;41.31;100918.88;7289354;19;131054;-36
2024/01/10 01:57:10;;;;;;;227.73;12.57;;;;;;;25.38;42.16;100904.47;7291478;19;130592;-37
2024/01/10 01:59:36;;;;;;;140.03;9.37;;;;;;;25.23;42.02;100904.91;7295043;19;129763;-40
2024/01/10 02:02:04;;;;;;;245.67;13.37;;;;;;;25.13;42.29;100898.75;7290548;19;129280;-38
2024/01/10 02:04:31;;;;;;;206.02;12.20;;;;;;;24.14;43.94;100887.81;7292173;19;129653;-41
2024/01/10 02:06:56;;;;;;;292.83;15.45;;;;;;;24.54;43.49;100908.19;7290979;19;130366;-34
2024/01/10 02:09:21;;;;;;;196.03;11.63;;;;;;;24.65;42.91;100905.47;7295613;19;130357;-36
2024/01/10 02:11:47;;;;;;;203.00;12.03;;;;;;;24.71;43.69;100900.56;7292210;19;129666;-39
2024/01/10 02:14:13;;;;;;;214.63;11.90;;;;;;;24.75;43.01;100901.16;7293343;19;129962;-38
2024/01/10 02:16:38;;;;;;;276.53;14.07;;;;;;;24.73;43.32;100905.69;7291776;19;131698;-40
2024/01/10 02:19:21;;;;;;;199.73;11.87;;;;;;;24.85;43.17;100904.69;7294592;19;131117;-40
2024/01/10 02:21:46;;;;;;;265.23;14.20;;;;;;;24.85;42.53;100904.69;7291950;19;129655;-35
2024/01/10 02:24:12;;;;;;;189.93;11.43;;;;;;;24.99;42.57;100896.47;7290465;19;130335;-40
2024/01/10 02:26:37;;;;;;;241.70;13.03;;;;;;;25.08;42.18;100895.69;7290178;19;131325;-40
2024/01/10 02:29:02;;;;;;;245.03;13.67;;;;;;;25.10;41.84;100899.03;7292605;19;131193;-37
2024/01/10 02:31:28;;;;;;;216.33;12.47;;;;;;;25.16;42.52;100887.97;7293083;19;130393;-35
2024/01/10 02:33:53;;;;;;;231.13;13.20;;;;;;;25.08;42.71;100891.25;7287478;19;130156;-36
2024/01/10 02:36:18;;;;;;;275.83;14.73;;;;;;;25.11;41.88;100895.41;7289200;19;130414;-39
2024/01/10 02:38:43;;;;;;;192.93;10.97;;;;;;;24.90;42.47;100866.50;7293362;19;129134;-39
2024/01/10 02:41:09;;;;;;;250.67;13.23;;;;;;;25.01;42.89;100884.84;7288795;19;131385;-39
2024/01/10 02:43:34;;;;;;;176.77;11.23;;;;;;;24.91;42.83;100889.22;7291225;19;131408;-40
2024/01/10 02:45:59;;;;;;;261.77;14.37;;;;;;;24.80;43.48;100885.81;7289783;19;130351;-34
2024/01/10 02:48:25;;;;;;;94.60;7.80;;;;;;;24.69;42.94;100881.47;7292781;19;129531;-37
2024/01/10 02:50:50;;;;;;;268.08;14.70;;;;;;;24.64;43.17;100881.00;7288221;19;129811;-36
2024/01/10 02:53:15;;;;;;;277.50;15.15;;;;;;;24.67;43.77;100891.25;7287822;19;130113;-39
2024/01/10 02:55:43;;;;;;;403.93;19.70;;;;;;;24.73;43.21;100879.41;7291141;19;130331;-39
2024/01/10 02:58:08;;;;;;;108.90;8.15;;;;;;;24.58;43.51;100852.56;7293434;19;130238;-39
2024/01/10 03:00:33;;;;;;;303.37;15.70;;;;;;;24.72;43.81;100883.84;7290072;19;131527;-38
2024/01/10 03:02:59;;;;;;;225.05;12.38;;;;;;;24.49;43.99;100883.09;7290213;19;131022;-37
2024/01/10 03:05:24;;;;;;;282.97;15.10;;;;;;;24.40;43.97;100880.38;7290791;19;130301;-35
2024/01/10 03:07:49;;;;;;;113.72;9.07;;;;;;;24.84;42.94;100882.78;7289015;19;129648;-35
2024/01/10 03:10:15;;;;;;;139.87;9.10;;;;;;;24.88;42.61;100880.75;7292026;19;129791;-38
2024/01/10 03:12:40;;;;;;;236.10;13.57;;;;;;;25.04;42.57;100875.88;7288598;19;129415;-40
2024/01/10 03:15:06;;;;;;;260.92;14.13;;;;;;;25.26;42.06;100878.31;7289903;19;131105;-41
2024/01/10 03:17:33;;;;;;;193.23;11.37;;;;;;;25.19;42.48;100871.91;7291499;19;129475;-36
2024/01/10 03:19:59;;;;;;;245.07;13.93;;;;;;;25.20;42.47;100873.59;7290615;19;129893;-38
2024/01/10 03:22:24;;;;;;;240.20;13.17;;;;;;;25.07;41.82;100846.66;7286995;19;130236;-41
2024/01/10 03:24:49;;;;;;;195.23;11.57;;;;;;;25.04;42.45;100873.25;7289285;19;130044;-35
2024/01/10 03:27:15;;;;;;;105.60;7.63;;;;;;;24.91;42.75;100843.66;7290344;19;129199;-35
2024/01/10 03:29:40;;;;;;;212.40;12.13;;;;;;;24.92;42.50;100869.84;7291216;19;129997;-35
2024/01/10 03:32:06;;;;;;;256.70;13.87;;;;;;;24.77;43.48;100862.41;7289672;19;131233;-38
2024/01/10 03:34:31;;;;;;;224.43;12.47;;;;;;;24.76;43.73;100858.94;7289907;19;130908;-38
2024/01/10 03:36:57;;;;;;;239.68;13.02;;;;;;;24.74;43.31;100862.69;7288211;19;130510;-37
2024/01/10 03:39:22;;;;;;;186.53;10.87;;;;;;;24.65;43.99;100858.16;7289322;19;129039;-37
2024/01/10 03:41:48;;;;;;;256.80;13.37;;;;;;;24.72;43.44;100846.19;7290444;19;131605;-40
2024/01/10 03:44:14;;;;;;;233.57;12.70;;;;;;;24.87;43.51;100855.41;7290777;19;130953;-39
2024/01/10 03:46:39;;;;;;;224.13;12.50;;;;;;;24.88;43.27;100862.31;7287317;19;130022;-35
2024/01/10 03:49:05;;;;;;;208.70;12.20;;;;;;;24.86;42.72;100856.38;7288722;19;129349;-36
2024/01/10 03:51:30;;;;;;;255.03;13.23;;;;;;;25.01;42.84;100853.25;7290098;19;130574;-37
2024/01/10 03:53:55;;;;;;;228.20;13.10;;;;;;;25.02;42.76;100848.84;7291640;19;131431;-40
2024/01/10 03:56:21;;;;;;;273.27;14.10;;;;;;;25.14;42.23;100842.53;7290030;19;129202;-40
2024/01/10 03:58:48;;;;;;;218.73;11.83;;;;;;;25.25;41.84;100845.91;7289559;19;130305;-36
2024/01/10 04:01:14;;;;;;;221.57;12.43;;;;;;;25.05;42.74;100838.06;7288701;19;130262;-39
2024/01/10 04:03:42;;;;;;;206.43;12.10;;;;;;;24.52;43.85;100844.34;7291101;19;130625;-40
2024/01/10 04:06:07;;;;;;;149.43;9.68;;;;;;;24.99;41.94;100833.31;7287638;19;129885;-34
2024/01/10 04:08:33;;;;;;;256.90;13.70;;;;;;;25.02;42.29;100833.06;7286373;19;129615;-40
2024/01/10 04:10:58;;;;;;;287.83;15.02;;;;;;;24.95;42.76;100832.75;7289615;19;129299;-38
2024/01/10 04:13:24;;;;;;;217.97;11.97;;;;;;;24.86;43.13;100837.97;7285668;19;130329;-38
2024/01/10 04:15:49;;;;;;;202.10;11.63;;;;;;;24.77;43.62;100834.31;7290355;19;130022;-38
2024/01/10 04:18:15;;;;;;;206.90;11.43;;;;;;;24.60;43.48;100816.47;7290237;19;129290;-40
2024/01/10 04:20:40;;;;;;;260.33;13.80;;;;;;;24.59;43.45;100835.84;7290286;19;130792;-39
2024/01/10 04:23:05;;;;;;;209.23;12.17;;;;;;;24.63;43.28;100837.25;7289774;19;131102;-34
2024/01/10 04:25:31;;;;;;;170.05;9.95;;;;;;;24.60;44.12;100847.19;7290243;19;130079;-35
2024/01/10 04:27:57;;;;;;;197.98;10.82;;;;;;;24.68;43.59;100839.50;7285630;19;129245;-38
2024/01/10 04:30:23;;;;;;;142.33;9.03;;;;;;;24.52;43.96;100820.69;7290525;19;131014;-40
2024/01/10 04:32:48;;;;;;;144.30;9.45;;;;;;;24.61;43.71;100844.41;7285958;19;129715;-41
2024/01/10 04:35:14;;;;;;;183.87;10.43;;;;;;;24.70;43.71;100834.97;7289592;19;130349;-37
2024/01/10 04:37:40;;;;;;;231.30;12.30;;;;;;;24.83;43.46;100846.09;7287786;19;130083;-40
2024/01/10 04:40:06;;;;;;;263.00;14.20;;;;;;;24.75;43.32;100845.91;7290331;19;130302;-40
2024/01/10 04:42:31;;;;;;;235.13;11.87;;;;;;;24.85;43.38;100852.91;7286511;19;129601;-36
2024/01/10 04:44:56;;;;;;;118.17;8.53;;;;;;;24.94;43.30;100851.31;7288421;19;129425;-34
2024/01/10 04:47:22;;;;;;;268.97;13.80;;;;;;;25.10;42.67;100855.13;7288980;19;129518;-39
2024/01/10 04:49:47;;;;;;;195.60;11.40;;;;;;;25.15;42.42;100850.31;7298504;19;131948;-39
2024/01/10 04:52:13;;;;;;;224.87;12.33;;;;;;;25.35;41.74;100851.22;7293780;19;130833;-40
2024/01/10 04:54:38;;;;;;;221.13;11.93;;;;;;;25.50;41.63;100847.25;7293156;19;129332;-33
2024/01/10 04:57:04;;;;;;;148.65;9.65;;;;;;;25.56;41.13;100841.44;7295296;19;131626;-37
2024/01/10 04:59:29;;;;;;;204.67;11.93;;;;;;;25.50;41.20;100849.91;7295925;19;130141;-39
2024/01/10 05:01:55;;;;;;;235.57;13.30;;;;;;;24.73;42.78;100847.84;7292262;19;130394;-36
2024/01/10 05:04:20;;;;;;;253.27;13.33;;;;;;;25.19;42.18;100850.84;7293488;19;129626;-42
2024/01/10 05:06:46;;;;;;;371.53;19.13;;;;;;;25.37;41.26;100834.31;7289607;19;131054;-37
2024/01/10 05:09:12;;;;;;;234.80;12.50;;;;;;;25.41;42.17;100846.25;7288345;19;130900;-36
2024/01/10 05:11:37;;;;;;;234.97;12.87;;;;;;;25.31;42.34;100848.00;7294203;19;130371;-39
2024/01/10 05:14:02;;;;;;;311.53;16.00;;;;;;;25.38;41.65;100854.44;7289486;19;130181;-36
2024/01/10 05:16:28;;;;;;;181.50;10.75;;;;;;;24.91;42.75;100862.91;7293119;19;129580;-36
2024/01/10 05:18:54;;;;;;;144.33;9.53;;;;;;;24.80;43.52;100854.25;7296432;19;131731;-38
2024/01/10 05:21:20;;;;;;;175.40;10.47;;;;;;;24.63;43.23;100862.69;7295535;19;130389;-41
2024/01/10 05:23:45;;;;;;;283.80;14.57;;;;;;;24.38;44.08;100848.13;7295152;19;132050;-41
2024/01/10 05:26:10;;;;;;;235.50;13.05;;;;;;;24.19;44.80;100848.00;7294740;19;130505;-35
2024/01/10 05:28:36;;;;;;;129.57;8.73;;;;;;;24.09;45.04;100847.94;7293178;19;129598;-35
2024/01/10 05:31:01;;;;;;;200.47;11.33;;;;;;;23.85;45.26;100843.81;7293249;19;130422;-38
2024/01/10 05:33:27;;;;;;;265.30;14.00;;;;;;;23.57;45.80;100828.59;7292089;19;131203;-40
2024/01/10 05:35:52;;;;;;;204.27;11.52;;;;;;;23.68;46.44;100850.41;7296484;19;133748;-41
2024/01/10 05:38:17;;;;;;;203.10;11.97;;;;;;;23.46;46.34;100855.69;7294195;19;131112;-34
2024/01/10 05:40:43;;;;;;;209.60;11.63;;;;;;;23.27;46.48;100858.06;7293520;19;130564;-36
2024/01/10 05:43:10;;;;;;;314.00;15.77;;;;;;;23.14;47.24;100857.31;7292320;19;129766;-36
2024/01/10 05:45:35;;;;;;;206.32;11.95;;;;;;;23.04;47.78;100862.44;7295090;19;129082;-40
2024/01/10 05:48:01;;;;;;;178.27;10.73;;;;;;;22.88;47.96;100863.75;7294426;19;131772;-39
2024/01/10 05:50:26;;;;;;;239.03;13.43;;;;;;;22.78;47.93;100865.41;7290411;19;131830;-37
2024/01/10 05:52:53;;;;;;;191.57;11.02;;;;;;;22.65;48.21;100851.56;7293754;19;129623;-37
2024/01/10 05:55:19;;;;;;;239.13;13.38;;;;;;;22.56;48.45;100841.78;7291405;19;131056;-40
2024/01/10 05:57:44;;;;;;;226.37;15.23;;;;;;;22.57;42.96;100856.53;7284802;19;131098;-36
2024/01/10 06:00:10;;;;;;;313.50;18.60;;;;;;;22.54;42.93;100859.41;7289236;19;129662;-37
2024/01/10 06:02:38;;;;;;;277.23;16.48;;;;;;;22.42;45.12;100858.50;7290813;19;133052;-40
2024/01/10 06:05:08;;;;;;;198.52;13.07;;;;;;;22.31;46.83;100847.13;7291650;19;129638;-37
2024/01/10 06:07:38;;;;;;;217.77;13.35;;;;;;;22.28;47.28;100865.72;7287055;19;130420;-37
2024/01/10 06:10:05;;;;;;;187.63;12.20;;;;;;;22.15;47.50;100860.53;7293607;19;131435;-39
2024/01/10 06:12:30;;;;;;;359.70;19.17;;;;;;;22.15;47.87;100864.94;7289956;19;129778;-38
2024/01/10 06:14:57;;;;;;;230.73;14.07;;;;;;;22.13;48.28;100872.06;7293334;19;132138;-39
2024/01/10 06:17:22;;;;;;;199.70;12.30;;;;;;;21.94;48.34;100855.09;7288340;19;130996;-37
2024/01/10 06:19:49;;;;;;;207.53;12.73;;;;;;;22.03;48.80;100860.59;7291862;19;130685;-42
2024/01/10 06:22:15;;;;;;;307.17;17.02;;;;;;;21.98;48.64;100862.72;7291221;19;130400;-35
2024/01/10 06:24:40;;;;;;;197.90;13.27;;;;;;;21.88;49.13;100841.59;7288983;19;129682;-37
2024/01/10 06:27:06;;;;;;;203.40;13.10;;;;;;;21.95;49.70;100861.97;7291070;19;130682;-41
2024/01/10 06:29:32;;;;;;;165.73;10.73;;;;;;;21.82;49.30;100836.78;7293932;19;130193;-39
2024/01/10 06:31:57;;;;;;;267.42;15.27;;;;;;;21.93;49.66;100861.25;7293025;19;131422;-40
2024/01/10 06:34:23;;;;;;;186.63;12.33;;;;;;;21.90;49.92;100858.84;7291930;19;129504;-37
2024/01/10 06:36:49;;;;;;;252.48;13.75;;;;;;;21.87;49.87;100855.63;7288815;19;130944;-39
2024/01/10 06:39:15;;;;;;;196.35;12.70;;;;;;;21.82;50.17;100858.59;7290285;19;129903;-39
2024/01/10 06:41:42;;;;;;;239.88;13.50;;;;;;;21.92;49.48;100854.34;7293481;19;129169;-37
2024/01/10 06:44:07;;;;;;;;;;;;;;;21.82;50.28;100858.59;7291463;19;129315;-41
2024/01/10 06:46:33;;;;;;;312.73;16.13;;;;;;;21.76;50.14;100853.78;7287002;19;130187;-39
2024/01/10 06:48:59;;;;;;;261.50;14.23;;;;;;;21.72;50.28;100861.91;7289641;19;130520;-39
2024/01/10 06:51:24;;;;;;;199.13;13.40;;;;;;;21.70;49.51;100869.88;7290244;19;129836;-36
2024/01/10 06:53:50;;;;;;;202.73;13.37;;;;;;;21.66;49.29;100867.59;7290427;19;129494;-39
2024/01/10 06:56:18;;;;;;;256.05;15.32;;;;;;;21.54;49.91;100842.28;7288386;19;131076;-35
2024/01/10 06:58:44;;;;;;;220.23;13.60;;;;;;;21.62;50.48;100859.13;7289549;19;129669;-37
2024/01/10 07:01:13;;;;;;;230.37;14.60;;;;;;;21.63;50.00;100868.69;7292474;19;129951;-37
2024/01/10 07:03:39;;;;;;;192.43;12.80;;;;;;;21.63;50.89;100867.81;7291091;19;129944;-41
2024/01/10 07:06:05;;;;;;;170.73;11.63;;;;;;;21.63;50.58;100873.06;7292048;19;130091;-39
2024/01/10 07:08:30;;;;;;;298.85;16.65;;;;;;;21.57;51.13;100863.84;7292026;19;130799;-36
2024/01/10 07:10:56;;;;;;;204.80;12.20;;;;;;;21.59;51.48;100861.97;7288370;19;129461;-35
2024/01/10 07:13:22;;;;;;;232.03;14.40;;;;;;;21.59;51.42;100874.22;7289318;19;130211;-37
2024/01/10 07:15:47;;;;;;;170.07;11.77;;;;;;;21.59;51.37;100872.44;7292170;19;130236;-40
2024/01/10 07:18:13;;;;;;;298.47;16.53;;;;;;;21.54;50.86;100871.94;7291953;19;131244;-38
2024/01/10 07:20:38;;;;;;;204.05;12.80;;;;;;;21.55;51.06;100873.59;7291520;19;132780;-37
2024/01/10 07:23:03;;;;;;;254.10;14.80;;;;;;;21.55;51.04;100865.75;7290766;19;130078;-36
2024/01/10 07:25:29;;;;;;;187.53;12.70;;;;;;;21.55;51.26;100870.97;7291040;19;130537;-39
2024/01/10 07:27:54;;;;;;;251.95;14.18;;;;;;;21.55;51.50;100860.50;7288884;19;130284;-39
2024/01/10 07:30:19;;;;;;;258.20;14.65;;;;;;;21.58;50.98;100862.94;7291987;19;129266;-40
2024/01/10 07:32:46;;;;;;;189.50;12.00;;;;;;;21.61;51.80;100873.19;7289174;19;129260;-39
2024/01/10 07:35:13;;;;;;;230.70;13.98;;;;;;;21.55;51.35;100865.75;7291072;19;131584;-37
2024/01/10 07:37:40;;;;;;;276.35;15.77;;;;;;;21.63;51.09;100863.44;7288783;19;130993;-35
2024/01/10 07:40:06;;;;;;;183.32;12.07;;;;;;;21.61;50.95;100865.31;7292163;19;130022;-38
2024/01/10 07:42:33;;;;;;;230.13;13.30;;;;;;;21.54;51.68;100853.63;7290135;19;129047;-39
2024/01/10 07:44:58;;;;;;;216.02;12.63;;;;;;;21.62;51.38;100874.84;7289977;19;130789;-39
2024/01/10 07:47:24;;;;;;;307.65;17.23;;;;;;;21.64;51.07;100872.94;7289629;19;131165;-39
2024/01/10 07:49:49;;;;;;;117.18;9.35;;;;;;;21.61;51.70;100870.56;7291891;19;129443;-39
2024/01/10 07:52:16;;;;;;;285.17;14.80;;;;;;;21.63;51.39;100868.69;7288844;19;130095;-39
2024/01/10 07:54:41;;;;;;;;;;;;;;;21.64;52.00;100869.50;7289529;19;130723;-34
2024/01/10 07:57:06;;;;;;;231.15;12.27;;;;;;;21.49;50.51;100850.47;7289285;19;131465;-43
2024/01/10 07:59:32;;;;;;;236.52;12.88;;;;;;;21.56;50.08;100856.97;7290443;19;130764;-41
2024/01/10 08:02:00;;;;;;;254.97;13.90;;;;;;;21.62;50.50;100877.44;7292055;19;131969;-40
2024/01/10 08:04:26;;;;;;;252.55;13.88;;;;;;;21.56;50.00;100869.19;7290203;19;131322;-38
2024/01/10 08:06:52;;;;;;;286.00;15.73;;;;;;;21.56;50.66;100866.59;7288625;19;130990;-40
2024/01/10 08:09:19;;;;;;;261.73;14.77;;;;;;;21.52;50.92;100870.34;7289970;19;129409;-42
2024/01/10 08:11:45;;;;;;;211.98;13.13;;;;;;;21.51;51.34;100864.31;7290415;19;129632;-40
2024/01/10 08:14:10;;;;;;;270.27;15.43;;;;;;;21.46;51.59;100855.09;7287244;19;130131;-40
2024/01/10 08:16:36;;;;;;;229.05;13.10;;;;;;;21.41;51.22;100852.81;7289429;19;132170;-43
2024/01/10 08:19:01;;;;;;;147.70;10.40;;;;;;;21.34;51.44;100859.41;7289656;19;130076;-43
2024/01/10 08:21:26;;;;;;;256.67;14.68;;;;;;;21.33;51.59;100849.91;7289073;19;129081;-39
2024/01/10 08:23:52;;;;;;;270.85;14.70;;;;;;;21.29;51.39;100848.44;7295103;19;130249;-38
2024/01/10 08:26:17;;;;;;;268.73;15.23;;;;;;;21.28;51.55;100854.63;7296616;19;130896;-39
2024/01/10 08:28:42;;;;;;;203.43;12.17;;;;;;;21.25;52.00;100846.16;7298864;19;131358;-40
2024/01/10 08:31:08;;;;;;;192.43;12.93;;;;;;;21.21;51.76;100853.38;7298054;19;130432;-39
2024/01/10 08:33:33;;;;;;;198.40;12.07;;;;;;;21.24;51.68;100854.91;7294850;19;130871;-39
2024/01/10 08:35:59;;;;;;;258.65;14.30;;;;;;;21.23;51.87;100848.88;7298250;19;131066;-38
2024/01/10 08:38:24;;;;;;;256.45;13.70;;;;;;;21.19;51.61;100842.16;7297620;19;130864;-38
2024/01/10 08:40:50;;;;;;;174.27;11.25;;;;;;;21.22;52.21;100846.34;7296230;19;129457;-38
2024/01/10 08:43:15;;;;;;;297.42;15.68;;;;;;;21.19;51.64;100862.28;7294813;19;131097;-38
2024/01/10 08:45:40;;;;;;;203.65;12.48;;;;;;;21.23;52.09;100856.72;7298023;19;131045;-38
2024/01/10 08:48:10;;;;;;;231.90;13.15;;;;;;;21.22;52.32;100854.22;7297116;19;130342;-38
2024/01/10 08:50:35;;;;;;;237.13;13.52;;;;;;;21.21;52.30;100850.75;7296292;19;129179;-38
2024/01/10 08:53:04;;;;;;;292.67;15.38;;;;;;;21.21;52.36;100855.97;7294574;19;130223;-38
2024/01/10 08:55:30;;;;;;;226.60;12.77;;;;;;;21.17;52.34;100859.72;7297487;19;131036;-38
2024/01/10 08:57:55;;;;;;;197.88;11.70;;;;;;;21.17;52.48;100849.28;7294918;19;129639;-39
2024/01/10 09:00:21;;;;;;;244.02;13.38;;;;;;;21.15;52.24;100856.41;7296308;19;130408;-40
2024/01/10 09:02:46;;;;;;;281.00;15.27;;;;;;;21.11;51.93;100860.16;7295475;19;130190;-39
2024/01/10 09:05:12;;;;;;;233.50;13.40;;;;;;;21.09;52.57;100859.44;7296004;19;130298;-39
2024/01/10 09:07:38;;;;;;;236.13;13.05;;;;;;;21.13;51.95;100862.69;7295104;19;131838;-39
2024/01/10 09:10:05;;;;;;;240.93;13.68;;;;;;;21.11;52.01;100849.72;7297023;19;129235;-37
2024/01/10 09:12:30;;;;;;;267.63;14.57;;;;;;;21.03;52.11;100852.03;7294835;19;130229;-39
2024/01/10 09:14:56;;;;;;;209.90;12.07;;;;;;;21.04;51.37;100851.06;7296453;19;131464;-39
2024/01/10 09:17:21;;;;;;;248.57;13.95;;;;;;;21.11;51.51;100854.94;7294371;19;130756;-38
2024/01/10 09:19:46;;;;;;;204.38;11.90;;;;;;;21.12;52.48;100861.00;7295522;19;129911;-37
2024/01/10 09:22:13;;;;;;;162.53;10.77;;;;;;;21.02;51.79;100857.34;7296388;19;130182;-38
2024/01/10 09:24:39;;;;;;;215.65;12.38;;;;;;;21.01;52.75;100853.91;7295063;19;131135;-38
2024/01/10 09:27:04;;;;;;;200.82;11.75;;;;;;;21.07;52.34;100855.25;7294429;19;130532;-38
2024/01/10 09:29:31;;;;;;;216.20;12.85;;;;;;;21.02;52.08;100847.75;7295262;19;129574;-39
2024/01/10 09:31:56;;;;;;;223.80;12.80;;;;;;;21.04;52.27;100853.69;7296630;19;130628;-36
2024/01/10 09:34:22;;;;;;;207.95;12.23;;;;;;;20.97;52.14;100855.06;7291638;19;130459;-40
2024/01/10 09:36:47;;;;;;;216.98;12.68;;;;;;;21.00;52.45;100852.25;7293789;19;129595;-38
2024/01/10 09:39:13;;;;;;;224.77;12.65;;;;;;;20.89;52.81;100828.56;7295276;19;130632;-37
2024/01/10 09:41:50;;;;;;;183.15;11.10;;;;;;;21.00;53.01;100846.16;7295765;19;130791;-37
2024/01/10 09:44:17;;;;;;;158.60;10.73;;;;;;;20.98;52.41;100848.03;7296781;19;132181;-37
2024/01/10 09:46:47;;;;;;;233.55;12.85;;;;;;;20.97;52.34;100836.78;7294381;19;130517;-38
2024/01/10 09:49:13;;;;;;;229.48;13.48;;;;;;;20.96;52.31;100829.81;7294293;19;129540;-38
2024/01/10 09:51:39;;;;;;;246.07;13.30;;;;;;;20.93;52.77;100840.50;7294773;19;130444;-38
2024/01/10 09:54:05;;;;;;;163.43;10.35;;;;;;;21.01;52.35;100832.97;7293887;19;130472;-39
2024/01/10 09:56:32;;;;;;;266.13;14.43;;;;;;;20.98;52.50;100827.97;7293530;19;130253;-39
2024/01/10 09:58:58;;;;;;;;;;;;;;;20.91;52.54;100839.75;7295771;19;132493;-38
2024/01/10 10:01:24;;;;;;;285.90;15.02;;;;;;;20.90;52.89;100824.16;7293758;19;131229;-37
2024/01/10 10:03:50;;;;;;;180.90;11.10;;;;;;;20.94;52.92;100825.66;7295000;19;130663;-38
2024/01/10 10:06:16;;;;;;;187.23;11.80;;;;;;;20.92;53.28;100828.38;7295151;19;130521;-39
2024/01/10 10:08:41;;;;;;;234.85;13.18;;;;;;;20.82;52.69;100800.34;7294310;19;129502;-38
2024/01/10 10:11:13;;;;;;;220.97;12.83;;;;;;;20.82;52.81;100798.56;7295795;19;132426;-38
2024/01/10 10:13:41;;;;;;;254.82;13.82;;;;;;;20.91;52.95;100821.44;7292057;19;131625;-38
2024/01/10 10:16:09;;;;;;;232.40;13.18;;;;;;;20.95;52.78;100828.16;7293239;19;129578;-39
2024/01/10 10:18:35;;;;;;;238.27;13.02;;;;;;;20.96;52.91;100829.81;7294787;19;130561;-39
2024/01/10 10:21:12;;;;;;;261.27;14.68;;;;;;;20.89;52.95;100825.13;7295294;19;131993;-38
2024/01/10 10:23:39;;;;;;;275.45;14.27;;;;;;;20.88;53.07;100818.22;7292492;19;130420;-39
2024/01/10 10:26:18;;;;;;;225.77;13.43;;;;;;;20.85;52.52;100814.03;7293778;19;129393;-39
2024/01/10 10:28:43;;;;;;;209.25;12.20;;;;;;;20.87;53.05;100814.78;7294346;19;129968;-38
2024/01/10 10:31:10;;;;;;;193.82;10.77;;;;;;;20.86;53.41;100826.16;7293954;19;130129;-39
2024/01/10 10:33:36;;;;;;;322.27;16.30;;;;;;;20.85;53.06;100818.41;7289184;19;131712;-38
2024/01/10 10:36:01;;;;;;;243.75;13.57;;;;;;;20.85;53.32;100819.28;7294662;19;129466;-38
2024/01/10 10:38:28;;;;;;;;;;;;;;;20.84;52.97;100820.19;7295214;19;131096;-37
2024/01/10 10:40:54;;;;;;;182.00;10.27;;;;;;;20.69;53.00;100801.16;7294508;19;130645;-38
2024/01/10 10:43:21;;;;;;;320.20;16.75;;;;;;;20.79;53.50;100817.09;7293929;19;130936;-38
2024/01/10 10:45:49;;;;;;;217.02;12.57;;;;;;;20.82;52.81;100814.25;7290465;19;129843;-39
2024/01/10 10:48:20;;;;;;;190.18;11.25;;;;;;;20.81;53.45;100811.75;7293416;19;130877;-38
2024/01/10 10:51:10;;;;;;;144.75;9.27;;;;;;;20.85;53.24;100819.28;7293437;19;131412;-38